sensor_id;sensor_type;location;lat;lon;timestamp;temperature;humidity
20658;DHT22;10488;50.846;4.078;2022-07-12T00:01:33;18.50;99.90
20658;DHT22;10488;50.846;4.078;2022-07-12T00:03:59;18.50;99.90
20658;DHT22;10488;50.846;4.078;2022-07-12T00:06:24;18.40;99.90
20658;DHT22;10488;50.846;4.078;2022-07-12T00:08:50;18.40;99.90
20658;DHT22;10488;50.846;4.078;2022-07-12T00:11:15;18.40;99.90
20658;DHT22;10488;50.846;4.078;2022-07-12T00:13:41;18.30;99.90
20658;DHT22;10488;50.846;4.078;2022-07-12T00:16:07;18.30;99.90
20658;DHT22;10488;50.846;4.078;2022-07-12T00:18:33;18.20;99.90
20658;DHT22;10488;50.846;4.078;2022-07-12T00:20:59;18.20;99.90
20658;DHT22;10488;50.846;4.078;2022-07-12T00:23:24;18.20;99.90
20658;DHT22;10488;50.846;4.078;2022-07-12T00:25:50;18.10;99.90
20658;DHT22;10488;50.846;4.078;2022-07-12T00:28:16;17.90;99.90
20658;DHT22;10488;50.846;4.078;2022-07-12T00:30:41;18.00;99.90
20658;DHT22;10488;50.846;4.078;2022-07-12T00:33:07;18.00;99.90
20658;DHT22;10488;50.846;4.078;2022-07-12T00:35:34;18.00;99.90
20658;DHT22;10488;50.846;4.078;2022-07-12T00:38:00;18.00;99.90
20658;DHT22;10488;50.846;4.078;2022-07-12T00:40:25;18.00;99.90
20658;DHT22;10488;50.846;4.078;2022-07-12T00:42:51;18.00;99.90
20658;DHT22;10488;50.846;4.078;2022-07-12T00:45:17;18.00;99.90
20658;DHT22;10488;50.846;4.078;2022-07-12T00:47:44;18.00;99.90
20658;DHT22;10488;50.846;4.078;2022-07-12T00:52:38;18.00;99.90
20658;DHT22;10488;50.846;4.078;2022-07-12T00:55:05;18.00;99.90
20658;DHT22;10488;50.846;4.078;2022-07-12T00:57:35;17.90;99.90
20658;DHT22;10488;50.846;4.078;2022-07-12T01:00:04;17.90;99.90
20658;DHT22;10488;50.846;4.078;2022-07-12T01:02:31;17.80;99.90
20658;DHT22;10488;50.846;4.078;2022-07-12T01:04:58;17.90;99.90
20658;DHT22;10488;50.846;4.078;2022-07-12T01:07:25;17.90;99.90
20658;DHT22;10488;50.846;4.078;2022-07-12T01:09:54;17.90;99.90
20658;DHT22;10488;50.846;4.078;2022-07-12T01:12:21;17.80;99.90
20658;DHT22;10488;50.846;4.078;2022-07-12T01:14:48;17.70;99.90
20658;DHT22;10488;50.846;4.078;2022-07-12T01:17:14;17.70;99.90
20658;DHT22;10488;50.846;4.078;2022-07-12T01:19:41;17.70;99.90
20658;DHT22;10488;50.846;4.078;2022-07-12T01:22:10;17.70;99.90
20658;DHT22;10488;50.846;4.078;2022-07-12T01:24:37;17.60;99.90
20658;DHT22;10488;50.846;4.078;2022-07-12T01:27:06;17.70;99.90
20658;DHT22;10488;50.846;4.078;2022-07-12T01:29:32;17.70;99.90
20658;DHT22;10488;50.846;4.078;2022-07-12T01:32:02;17.70;99.90
20658;DHT22;10488;50.846;4.078;2022-07-12T01:34:51;17.60;99.90
20658;DHT22;10488;50.846;4.078;2022-07-12T01:37:19;17.40;99.90
20658;DHT22;10488;50.846;4.078;2022-07-12T01:39:46;17.00;99.90
20658;DHT22;10488;50.846;4.078;2022-07-12T01:42:13;16.60;99.90
20658;DHT22;10488;50.846;4.078;2022-07-12T01:44:39;16.40;99.90
20658;DHT22;10488;50.846;4.078;2022-07-12T01:47:05;16.40;99.90
20658;DHT22;10488;50.846;4.078;2022-07-12T01:49:30;16.40;99.90
20658;DHT22;10488;50.846;4.078;2022-07-12T01:51:56;16.30;99.90
20658;DHT22;10488;50.846;4.078;2022-07-12T01:54:24;16.30;99.90
20658;DHT22;10488;50.846;4.078;2022-07-12T01:56:51;16.00;99.90
20658;DHT22;10488;50.846;4.078;2022-07-12T01:59:17;15.70;99.90
20658;DHT22;10488;50.846;4.078;2022-07-12T02:01:43;15.60;99.90
20658;DHT22;10488;50.846;4.078;2022-07-12T02:04:09;15.60;99.90
20658;DHT22;10488;50.846;4.078;2022-07-12T02:06:35;15.60;99.90
20658;DHT22;10488;50.846;4.078;2022-07-12T02:09:01;15.70;99.90
20658;DHT22;10488;50.846;4.078;2022-07-12T02:11:27;15.60;99.90
20658;DHT22;10488;50.846;4.078;2022-07-12T02:13:52;15.60;99.90
20658;DHT22;10488;50.846;4.078;2022-07-12T02:16:18;15.60;99.90
20658;DHT22;10488;50.846;4.078;2022-07-12T02:18:43;15.60;99.90
20658;DHT22;10488;50.846;4.078;2022-07-12T02:21:09;15.80;99.90
20658;DHT22;10488;50.846;4.078;2022-07-12T02:23:35;16.00;99.90
20658;DHT22;10488;50.846;4.078;2022-07-12T02:26:01;15.70;99.90
20658;DHT22;10488;50.846;4.078;2022-07-12T02:28:27;15.50;99.90
20658;DHT22;10488;50.846;4.078;2022-07-12T02:30:52;15.50;99.90
20658;DHT22;10488;50.846;4.078;2022-07-12T02:33:18;15.40;99.90
20658;DHT22;10488;50.846;4.078;2022-07-12T02:35:45;15.30;99.90
20658;DHT22;10488;50.846;4.078;2022-07-12T02:38:11;15.50;99.90
20658;DHT22;10488;50.846;4.078;2022-07-12T02:40:37;15.40;99.90
20658;DHT22;10488;50.846;4.078;2022-07-12T02:43:21;15.60;99.90
20658;DHT22;10488;50.846;4.078;2022-07-12T02:45:47;15.70;99.90
20658;DHT22;10488;50.846;4.078;2022-07-12T02:48:13;15.60;99.90
20658;DHT22;10488;50.846;4.078;2022-07-12T02:50:41;15.40;99.90
20658;DHT22;10488;50.846;4.078;2022-07-12T02:53:08;15.50;99.90
20658;DHT22;10488;50.846;4.078;2022-07-12T02:55:34;15.20;99.90
20658;DHT22;10488;50.846;4.078;2022-07-12T02:58:00;15.30;99.90
20658;DHT22;10488;50.846;4.078;2022-07-12T03:00:27;15.50;99.90
20658;DHT22;10488;50.846;4.078;2022-07-12T03:02:53;15.60;99.90
20658;DHT22;10488;50.846;4.078;2022-07-12T03:05:19;15.50;99.90
20658;DHT22;10488;50.846;4.078;2022-07-12T03:07:44;15.20;99.90
20658;DHT22;10488;50.846;4.078;2022-07-12T03:10:10;15.40;99.90
20658;DHT22;10488;50.846;4.078;2022-07-12T03:12:36;15.40;99.90
20658;DHT22;10488;50.846;4.078;2022-07-12T03:15:03;15.50;99.90
20658;DHT22;10488;50.846;4.078;2022-07-12T03:17:29;15.50;99.90
20658;DHT22;10488;50.846;4.078;2022-07-12T03:19:55;15.60;99.90
20658;DHT22;10488;50.846;4.078;2022-07-12T03:22:20;15.20;99.90
20658;DHT22;10488;50.846;4.078;2022-07-12T03:24:46;14.90;99.90
20658;DHT22;10488;50.846;4.078;2022-07-12T03:27:11;14.80;99.90
20658;DHT22;10488;50.846;4.078;2022-07-12T03:29:38;14.90;99.90
20658;DHT22;10488;50.846;4.078;2022-07-12T03:32:06;14.90;99.90
20658;DHT22;10488;50.846;4.078;2022-07-12T03:34:32;15.00;99.90
20658;DHT22;10488;50.846;4.078;2022-07-12T03:36:58;15.20;99.90
20658;DHT22;10488;50.846;4.078;2022-07-12T03:39:24;15.20;99.90
20658;DHT22;10488;50.846;4.078;2022-07-12T03:41:50;15.20;99.90
20658;DHT22;10488;50.846;4.078;2022-07-12T03:44:15;15.30;99.90
20658;DHT22;10488;50.846;4.078;2022-07-12T03:46:41;15.40;99.90
20658;DHT22;10488;50.846;4.078;2022-07-12T03:49:07;15.40;99.90
20658;DHT22;10488;50.846;4.078;2022-07-12T03:51:33;15.30;99.90
20658;DHT22;10488;50.846;4.078;2022-07-12T03:53:58;15.10;99.90
20658;DHT22;10488;50.846;4.078;2022-07-12T03:56:24;15.30;99.90
20658;DHT22;10488;50.846;4.078;2022-07-12T03:59:08;15.40;99.90
20658;DHT22;10488;50.846;4.078;2022-07-12T04:01:34;15.50;99.90
20658;DHT22;10488;50.846;4.078;2022-07-12T04:04:00;15.60;99.90
20658;DHT22;10488;50.846;4.078;2022-07-12T04:06:25;15.60;99.90
20658;DHT22;10488;50.846;4.078;2022-07-12T04:08:51;15.50;99.90
20658;DHT22;10488;50.846;4.078;2022-07-12T04:11:16;15.60;99.90
20658;DHT22;10488;50.846;4.078;2022-07-12T04:13:42;15.70;99.90
20658;DHT22;10488;50.846;4.078;2022-07-12T04:16:08;15.70;99.90
20658;DHT22;10488;50.846;4.078;2022-07-12T04:18:33;15.80;99.90
20658;DHT22;10488;50.846;4.078;2022-07-12T04:20:59;15.60;99.90
20658;DHT22;10488;50.846;4.078;2022-07-12T04:23:25;15.60;99.90
20658;DHT22;10488;50.846;4.078;2022-07-12T04:25:51;15.60;99.90
20658;DHT22;10488;50.846;4.078;2022-07-12T04:28:17;15.60;99.90
20658;DHT22;10488;50.846;4.078;2022-07-12T04:30:43;15.70;99.90
20658;DHT22;10488;50.846;4.078;2022-07-12T04:33:10;15.80;99.90
20658;DHT22;10488;50.846;4.078;2022-07-12T04:35:36;15.70;99.90
20658;DHT22;10488;50.846;4.078;2022-07-12T04:38:03;15.70;99.90
20658;DHT22;10488;50.846;4.078;2022-07-12T04:40:28;16.00;99.90
20658;DHT22;10488;50.846;4.078;2022-07-12T04:42:54;16.00;99.90
20658;DHT22;10488;50.846;4.078;2022-07-12T04:45:20;16.00;99.90
20658;DHT22;10488;50.846;4.078;2022-07-12T04:47:46;15.90;99.90
20658;DHT22;10488;50.846;4.078;2022-07-12T04:50:12;16.00;99.90
20658;DHT22;10488;50.846;4.078;2022-07-12T04:52:37;16.40;99.90
20658;DHT22;10488;50.846;4.078;2022-07-12T04:55:04;16.50;99.90
20658;DHT22;10488;50.846;4.078;2022-07-12T04:57:30;16.80;99.90
20658;DHT22;10488;50.846;4.078;2022-07-12T04:59:56;17.00;99.90
20658;DHT22;10488;50.846;4.078;2022-07-12T05:02:21;16.80;99.90
20658;DHT22;10488;50.846;4.078;2022-07-12T05:04:47;17.00;99.90
20658;DHT22;10488;50.846;4.078;2022-07-12T05:07:13;17.20;99.90
20658;DHT22;10488;50.846;4.078;2022-07-12T05:09:38;17.50;99.90
20658;DHT22;10488;50.846;4.078;2022-07-12T05:12:05;17.70;99.90
20658;DHT22;10488;50.846;4.078;2022-07-12T05:14:31;17.70;99.90
20658;DHT22;10488;50.846;4.078;2022-07-12T05:16:57;17.50;99.90
20658;DHT22;10488;50.846;4.078;2022-07-12T05:19:22;17.70;99.90
20658;DHT22;10488;50.846;4.078;2022-07-12T05:21:49;17.90;99.90
20658;DHT22;10488;50.846;4.078;2022-07-12T05:24:15;18.50;99.90
20658;DHT22;10488;50.846;4.078;2022-07-12T05:26:41;18.20;99.90
20658;DHT22;10488;50.846;4.078;2022-07-12T05:29:07;18.30;99.90
20658;DHT22;10488;50.846;4.078;2022-07-12T05:31:33;18.60;99.90
20658;DHT22;10488;50.846;4.078;2022-07-12T05:33:59;18.90;99.90
20658;DHT22;10488;50.846;4.078;2022-07-12T05:36:24;19.10;99.90
20658;DHT22;10488;50.846;4.078;2022-07-12T05:38:50;19.50;99.90
20658;DHT22;10488;50.846;4.078;2022-07-12T05:41:16;19.60;99.90
20658;DHT22;10488;50.846;4.078;2022-07-12T05:43:42;20.00;99.90
20658;DHT22;10488;50.846;4.078;2022-07-12T05:46:08;20.10;99.90
20658;DHT22;10488;50.846;4.078;2022-07-12T05:48:34;20.20;99.90
20658;DHT22;10488;50.846;4.078;2022-07-12T05:51:00;20.20;99.90
20658;DHT22;10488;50.846;4.078;2022-07-12T05:53:46;20.30;99.90
20658;DHT22;10488;50.846;4.078;2022-07-12T05:56:12;20.80;99.90
20658;DHT22;10488;50.846;4.078;2022-07-12T05:58:37;20.90;99.90
20658;DHT22;10488;50.846;4.078;2022-07-12T06:01:03;20.90;99.90
20658;DHT22;10488;50.846;4.078;2022-07-12T06:03:29;21.30;99.90
20658;DHT22;10488;50.846;4.078;2022-07-12T06:05:54;21.40;99.90
20658;DHT22;10488;50.846;4.078;2022-07-12T06:08:20;21.50;99.90
20658;DHT22;10488;50.846;4.078;2022-07-12T06:10:46;22.00;99.90
20658;DHT22;10488;50.846;4.078;2022-07-12T06:13:11;22.70;99.90
20658;DHT22;10488;50.846;4.078;2022-07-12T06:15:37;23.40;99.90
20658;DHT22;10488;50.846;4.078;2022-07-12T06:18:03;23.30;99.90
20658;DHT22;10488;50.846;4.078;2022-07-12T06:20:29;24.00;99.90
20658;DHT22;10488;50.846;4.078;2022-07-12T06:22:55;23.70;99.90
20658;DHT22;10488;50.846;4.078;2022-07-12T06:25:21;23.80;99.90
20658;DHT22;10488;50.846;4.078;2022-07-12T06:27:48;24.00;99.90
20658;DHT22;10488;50.846;4.078;2022-07-12T06:30:18;24.10;99.90
20658;DHT22;10488;50.846;4.078;2022-07-12T06:32:45;24.60;99.90
20658;DHT22;10488;50.846;4.078;2022-07-12T06:35:12;25.10;99.90
20658;DHT22;10488;50.846;4.078;2022-07-12T06:37:38;25.00;99.90
20658;DHT22;10488;50.846;4.078;2022-07-12T06:40:04;26.00;99.90
20658;DHT22;10488;50.846;4.078;2022-07-12T06:42:30;26.30;99.90
20658;DHT22;10488;50.846;4.078;2022-07-12T06:44:56;26.00;99.90
20658;DHT22;10488;50.846;4.078;2022-07-12T06:47:22;25.90;99.90
20658;DHT22;10488;50.846;4.078;2022-07-12T06:49:47;26.40;99.90
20658;DHT22;10488;50.846;4.078;2022-07-12T06:52:13;26.70;99.90
20658;DHT22;10488;50.846;4.078;2022-07-12T06:54:39;27.60;99.90
20658;DHT22;10488;50.846;4.078;2022-07-12T06:57:05;27.30;99.90
20658;DHT22;10488;50.846;4.078;2022-07-12T06:59:31;26.70;99.90
20658;DHT22;10488;50.846;4.078;2022-07-12T07:01:57;27.10;99.90
20658;DHT22;10488;50.846;4.078;2022-07-12T07:04:23;26.30;99.90
20658;DHT22;10488;50.846;4.078;2022-07-12T07:06:50;26.00;99.90
20658;DHT22;10488;50.846;4.078;2022-07-12T07:09:15;26.50;99.90
20658;DHT22;10488;50.846;4.078;2022-07-12T07:11:42;27.20;99.90
20658;DHT22;10488;50.846;4.078;2022-07-12T07:14:08;27.90;99.90
20658;DHT22;10488;50.846;4.078;2022-07-12T07:16:34;27.30;99.90
20658;DHT22;10488;50.846;4.078;2022-07-12T07:18:59;26.60;99.90
20658;DHT22;10488;50.846;4.078;2022-07-12T07:21:25;26.90;99.90
20658;DHT22;10488;50.846;4.078;2022-07-12T07:23:51;27.30;99.90
20658;DHT22;10488;50.846;4.078;2022-07-12T07:26:18;27.30;99.90
20658;DHT22;10488;50.846;4.078;2022-07-12T07:28:43;27.40;99.90
20658;DHT22;10488;50.846;4.078;2022-07-12T07:31:27;27.00;99.90
20658;DHT22;10488;50.846;4.078;2022-07-12T07:33:53;28.10;99.90
20658;DHT22;10488;50.846;4.078;2022-07-12T07:36:19;28.10;99.90
20658;DHT22;10488;50.846;4.078;2022-07-12T07:38:44;27.40;99.90
20658;DHT22;10488;50.846;4.078;2022-07-12T07:41:10;26.40;99.90
20658;DHT22;10488;50.846;4.078;2022-07-12T07:43:36;27.00;99.90
20658;DHT22;10488;50.846;4.078;2022-07-12T07:46:01;27.90;99.90
20658;DHT22;10488;50.846;4.078;2022-07-12T07:48:28;27.60;99.90
20658;DHT22;10488;50.846;4.078;2022-07-12T07:50:54;27.80;99.90
20658;DHT22;10488;50.846;4.078;2022-07-12T07:53:20;27.70;99.90
20658;DHT22;10488;50.846;4.078;2022-07-12T07:55:45;28.30;99.90
20658;DHT22;10488;50.846;4.078;2022-07-12T07:58:11;27.50;99.90
20658;DHT22;10488;50.846;4.078;2022-07-12T08:00:39;28.10;99.90
20658;DHT22;10488;50.846;4.078;2022-07-12T08:03:05;28.50;99.90
20658;DHT22;10488;50.846;4.078;2022-07-12T08:05:31;27.40;99.90
20658;DHT22;10488;50.846;4.078;2022-07-12T08:07:57;27.50;99.90
20658;DHT22;10488;50.846;4.078;2022-07-12T08:10:23;27.20;99.90
20658;DHT22;10488;50.846;4.078;2022-07-12T08:12:49;26.50;99.90
20658;DHT22;10488;50.846;4.078;2022-07-12T08:15:15;26.40;99.90
20658;DHT22;10488;50.846;4.078;2022-07-12T08:17:40;26.60;99.90
20658;DHT22;10488;50.846;4.078;2022-07-12T08:20:06;27.40;99.90
20658;DHT22;10488;50.846;4.078;2022-07-12T08:22:32;28.00;99.90
20658;DHT22;10488;50.846;4.078;2022-07-12T08:24:58;27.80;99.90
20658;DHT22;10488;50.846;4.078;2022-07-12T08:27:24;28.10;99.90
20658;DHT22;10488;50.846;4.078;2022-07-12T08:29:50;28.60;99.90
20658;DHT22;10488;50.846;4.078;2022-07-12T08:32:16;28.60;99.90
20658;DHT22;10488;50.846;4.078;2022-07-12T08:34:42;29.50;99.90
20658;DHT22;10488;50.846;4.078;2022-07-12T08:37:07;29.20;99.90
20658;DHT22;10488;50.846;4.078;2022-07-12T08:39:33;28.70;99.90
20658;DHT22;10488;50.846;4.078;2022-07-12T08:41:59;29.20;99.90
20658;DHT22;10488;50.846;4.078;2022-07-12T08:44:25;29.90;99.90
20658;DHT22;10488;50.846;4.078;2022-07-12T08:46:51;29.00;99.90
20658;DHT22;10488;50.846;4.078;2022-07-12T08:49:19;28.50;99.90
20658;DHT22;10488;50.846;4.078;2022-07-12T08:51:44;28.50;99.90
20658;DHT22;10488;50.846;4.078;2022-07-12T08:54:14;28.90;99.90
20658;DHT22;10488;50.846;4.078;2022-07-12T08:56:42;29.20;99.90
20658;DHT22;10488;50.846;4.078;2022-07-12T08:59:14;28.90;99.90
20658;DHT22;10488;50.846;4.078;2022-07-12T09:01:50;29.30;99.90
20658;DHT22;10488;50.846;4.078;2022-07-12T09:04:24;29.30;99.90
20658;DHT22;10488;50.846;4.078;2022-07-12T09:06:51;28.50;99.90
20658;DHT22;10488;50.846;4.078;2022-07-12T09:09:31;28.50;99.90
20658;DHT22;10488;50.846;4.078;2022-07-12T09:11:58;29.10;99.90
20658;DHT22;10488;50.846;4.078;2022-07-12T09:14:24;29.70;99.90
20658;DHT22;10488;50.846;4.078;2022-07-12T09:17:07;29.00;99.90
20658;DHT22;10488;50.846;4.078;2022-07-12T09:19:38;29.20;99.90
20658;DHT22;10488;50.846;4.078;2022-07-12T09:22:05;29.20;99.90
20658;DHT22;10488;50.846;4.078;2022-07-12T09:24:38;29.80;99.90
20658;DHT22;10488;50.846;4.078;2022-07-12T09:27:04;30.40;99.90
20658;DHT22;10488;50.846;4.078;2022-07-12T09:29:31;30.20;99.90
20658;DHT22;10488;50.846;4.078;2022-07-12T09:32:06;30.30;99.90
20658;DHT22;10488;50.846;4.078;2022-07-12T09:34:57;29.10;99.90
20658;DHT22;10488;50.846;4.078;2022-07-12T09:37:42;29.10;99.90
20658;DHT22;10488;50.846;4.078;2022-07-12T09:40:08;29.30;99.90
20658;DHT22;10488;50.846;4.078;2022-07-12T09:42:35;30.00;99.90
20658;DHT22;10488;50.846;4.078;2022-07-12T09:45:01;29.10;99.90
20658;DHT22;10488;50.846;4.078;2022-07-12T09:47:27;29.60;99.90
20658;DHT22;10488;50.846;4.078;2022-07-12T09:49:54;28.90;99.90
20658;DHT22;10488;50.846;4.078;2022-07-12T09:52:26;29.00;99.90
20658;DHT22;10488;50.846;4.078;2022-07-12T09:54:54;29.50;99.90
20658;DHT22;10488;50.846;4.078;2022-07-12T09:57:25;29.10;99.90
20658;DHT22;10488;50.846;4.078;2022-07-12T09:59:51;28.80;99.90
20658;DHT22;10488;50.846;4.078;2022-07-12T10:02:18;28.50;99.90
20658;DHT22;10488;50.846;4.078;2022-07-12T10:04:46;28.70;99.90
20658;DHT22;10488;50.846;4.078;2022-07-12T10:07:11;28.80;99.90
20658;DHT22;10488;50.846;4.078;2022-07-12T10:09:47;28.10;99.90
20658;DHT22;10488;50.846;4.078;2022-07-12T10:12:16;28.10;99.90
20658;DHT22;10488;50.846;4.078;2022-07-12T10:14:44;28.40;99.90
20658;DHT22;10488;50.846;4.078;2022-07-12T10:17:11;28.40;99.90
20658;DHT22;10488;50.846;4.078;2022-07-12T10:19:38;28.40;99.90
20658;DHT22;10488;50.846;4.078;2022-07-12T10:22:06;28.10;99.90
20658;DHT22;10488;50.846;4.078;2022-07-12T10:29:46;28.80;99.90
20658;DHT22;10488;50.846;4.078;2022-07-12T10:32:42;28.90;99.90
20658;DHT22;10488;50.846;4.078;2022-07-12T10:35:19;29.00;99.90
20658;DHT22;10488;50.846;4.078;2022-07-12T10:40:35;28.80;99.90
20658;DHT22;10488;50.846;4.078;2022-07-12T10:45:34;28.60;99.90
20658;DHT22;10488;50.846;4.078;2022-07-12T10:48:05;28.70;99.90
20658;DHT22;10488;50.846;4.078;2022-07-12T10:50:54;28.70;99.90
20658;DHT22;10488;50.846;4.078;2022-07-12T10:53:26;28.80;99.90
20658;DHT22;10488;50.846;4.078;2022-07-12T10:56:13;28.90;99.90
20658;DHT22;10488;50.846;4.078;2022-07-12T10:58:47;28.90;99.90
20658;DHT22;10488;50.846;4.078;2022-07-12T11:01:18;29.00;99.90
20658;DHT22;10488;50.846;4.078;2022-07-12T11:03:49;28.80;99.90
20658;DHT22;10488;50.846;4.078;2022-07-12T11:06:20;28.80;99.90
20658;DHT22;10488;50.846;4.078;2022-07-12T11:11:48;29.20;99.90
20658;DHT22;10488;50.846;4.078;2022-07-12T11:14:23;28.90;99.90
20658;DHT22;10488;50.846;4.078;2022-07-12T11:16:51;28.80;99.90
20658;DHT22;10488;50.846;4.078;2022-07-12T11:19:24;29.20;99.90
20658;DHT22;10488;50.846;4.078;2022-07-12T11:21:51;29.50;99.90
20658;DHT22;10488;50.846;4.078;2022-07-12T11:24:22;29.60;99.90
20658;DHT22;10488;50.846;4.078;2022-07-12T11:26:48;29.80;99.90
20658;DHT22;10488;50.846;4.078;2022-07-12T11:29:14;29.60;99.90
20658;DHT22;10488;50.846;4.078;2022-07-12T11:31:40;29.90;99.90
20658;DHT22;10488;50.846;4.078;2022-07-12T11:34:06;30.00;99.90
20658;DHT22;10488;50.846;4.078;2022-07-12T11:36:32;29.80;99.90
20658;DHT22;10488;50.846;4.078;2022-07-12T11:38:59;29.70;99.90
20658;DHT22;10488;50.846;4.078;2022-07-12T11:41:26;29.50;99.90
20658;DHT22;10488;50.846;4.078;2022-07-12T11:43:51;30.00;99.90
20658;DHT22;10488;50.846;4.078;2022-07-12T11:46:17;29.90;99.90
20658;DHT22;10488;50.846;4.078;2022-07-12T11:48:43;29.40;99.90
20658;DHT22;10488;50.846;4.078;2022-07-12T11:51:11;29.50;99.90
20658;DHT22;10488;50.846;4.078;2022-07-12T11:53:39;29.60;99.90
20658;DHT22;10488;50.846;4.078;2022-07-12T11:56:06;30.10;99.90
20658;DHT22;10488;50.846;4.078;2022-07-12T11:58:33;30.00;99.90
20658;DHT22;10488;50.846;4.078;2022-07-12T12:01:03;29.90;99.90
20658;DHT22;10488;50.846;4.078;2022-07-12T12:03:29;29.20;99.90
20658;DHT22;10488;50.846;4.078;2022-07-12T12:05:57;29.50;99.90
20658;DHT22;10488;50.846;4.078;2022-07-12T12:08:23;29.70;99.90
20658;DHT22;10488;50.846;4.078;2022-07-12T12:10:57;29.60;99.90
20658;DHT22;10488;50.846;4.078;2022-07-12T12:13:24;29.50;99.90
20658;DHT22;10488;50.846;4.078;2022-07-12T12:16:03;29.40;99.90
20658;DHT22;10488;50.846;4.078;2022-07-12T12:18:37;29.40;99.90
20658;DHT22;10488;50.846;4.078;2022-07-12T12:21:08;29.50;99.90
20658;DHT22;10488;50.846;4.078;2022-07-12T12:23:36;29.60;99.90
20658;DHT22;10488;50.846;4.078;2022-07-12T12:26:30;29.70;99.90
20658;DHT22;10488;50.846;4.078;2022-07-12T12:28:56;29.50;99.90
20658;DHT22;10488;50.846;4.078;2022-07-12T12:31:23;28.90;99.90
20658;DHT22;10488;50.846;4.078;2022-07-12T12:33:53;29.10;99.90
20658;DHT22;10488;50.846;4.078;2022-07-12T12:38:51;29.30;99.90
20658;DHT22;10488;50.846;4.078;2022-07-12T12:41:18;29.50;99.90
20658;DHT22;10488;50.846;4.078;2022-07-12T12:43:45;30.00;99.90
20658;DHT22;10488;50.846;4.078;2022-07-12T12:46:10;29.90;99.90
20658;DHT22;10488;50.846;4.078;2022-07-12T12:48:36;30.00;99.90
20658;DHT22;10488;50.846;4.078;2022-07-12T12:51:09;30.50;99.90
20658;DHT22;10488;50.846;4.078;2022-07-12T12:53:36;30.80;99.90
20658;DHT22;10488;50.846;4.078;2022-07-12T12:56:09;30.80;99.90
20658;DHT22;10488;50.846;4.078;2022-07-12T12:58:36;30.90;99.90
20658;DHT22;10488;50.846;4.078;2022-07-12T13:01:02;30.70;99.90
20658;DHT22;10488;50.846;4.078;2022-07-12T13:03:28;30.00;99.90
20658;DHT22;10488;50.846;4.078;2022-07-12T13:05:54;30.60;99.90
20658;DHT22;10488;50.846;4.078;2022-07-12T13:08:20;30.50;99.90
20658;DHT22;10488;50.846;4.078;2022-07-12T13:10:47;30.60;99.90
20658;DHT22;10488;50.846;4.078;2022-07-12T13:13:14;30.70;99.90
20658;DHT22;10488;50.846;4.078;2022-07-12T13:15:40;30.60;99.90
20658;DHT22;10488;50.846;4.078;2022-07-12T13:18:06;30.70;99.90
20658;DHT22;10488;50.846;4.078;2022-07-12T13:20:32;31.00;99.90
20658;DHT22;10488;50.846;4.078;2022-07-12T13:22:58;31.00;99.90
20658;DHT22;10488;50.846;4.078;2022-07-12T13:25:25;31.30;99.90
20658;DHT22;10488;50.846;4.078;2022-07-12T13:27:52;30.90;99.90
20658;DHT22;10488;50.846;4.078;2022-07-12T13:30:19;31.30;99.90
20658;DHT22;10488;50.846;4.078;2022-07-12T13:32:45;31.10;99.90
20658;DHT22;10488;50.846;4.078;2022-07-12T13:35:12;30.80;99.80
20658;DHT22;10488;50.846;4.078;2022-07-12T13:37:40;30.70;99.70
20658;DHT22;10488;50.846;4.078;2022-07-12T13:40:06;30.60;99.60
20658;DHT22;10488;50.846;4.078;2022-07-12T13:42:49;30.40;99.20
20658;DHT22;10488;50.846;4.078;2022-07-12T13:45:17;30.20;99.60
20658;DHT22;10488;50.846;4.078;2022-07-12T13:47:43;30.20;99.90
20658;DHT22;10488;50.846;4.078;2022-07-12T13:50:11;30.60;98.90
20658;DHT22;10488;50.846;4.078;2022-07-12T13:52:38;30.60;98.70
20658;DHT22;10488;50.846;4.078;2022-07-12T13:55:06;30.60;99.00
20658;DHT22;10488;50.846;4.078;2022-07-12T13:57:32;30.40;99.80
20658;DHT22;10488;50.846;4.078;2022-07-12T13:59:58;30.30;98.70
20658;DHT22;10488;50.846;4.078;2022-07-12T14:02:24;30.40;99.90
20658;DHT22;10488;50.846;4.078;2022-07-12T14:04:52;30.50;99.20
20658;DHT22;10488;50.846;4.078;2022-07-12T14:07:17;30.50;98.80
20658;DHT22;10488;50.846;4.078;2022-07-12T14:09:43;30.00;98.60
20658;DHT22;10488;50.846;4.078;2022-07-12T14:12:09;30.10;99.50
20658;DHT22;10488;50.846;4.078;2022-07-12T14:14:35;30.20;99.90
20658;DHT22;10488;50.846;4.078;2022-07-12T14:17:21;30.20;99.20
20658;DHT22;10488;50.846;4.078;2022-07-12T14:19:46;30.10;98.10
20658;DHT22;10488;50.846;4.078;2022-07-12T14:22:12;30.10;97.30
20658;DHT22;10488;50.846;4.078;2022-07-12T14:24:38;30.50;98.90
20658;DHT22;10488;50.846;4.078;2022-07-12T14:27:03;30.50;99.40
20658;DHT22;10488;50.846;4.078;2022-07-12T14:29:31;30.50;99.10
20658;DHT22;10488;50.846;4.078;2022-07-12T14:31:57;30.80;98.60
20658;DHT22;10488;50.846;4.078;2022-07-12T14:34:23;31.00;98.70
20658;DHT22;10488;50.846;4.078;2022-07-12T14:36:49;31.10;97.60
20658;DHT22;10488;50.846;4.078;2022-07-12T14:39:15;31.10;97.60
20658;DHT22;10488;50.846;4.078;2022-07-12T14:41:41;31.00;98.20
20658;DHT22;10488;50.846;4.078;2022-07-12T14:44:06;31.40;98.10
20658;DHT22;10488;50.846;4.078;2022-07-12T14:46:33;31.40;97.80
20658;DHT22;10488;50.846;4.078;2022-07-12T14:48:59;31.50;97.20
20658;DHT22;10488;50.846;4.078;2022-07-12T14:51:25;31.50;96.50
20658;DHT22;10488;50.846;4.078;2022-07-12T14:53:51;31.10;97.10
20658;DHT22;10488;50.846;4.078;2022-07-12T14:56:19;30.80;99.20
20658;DHT22;10488;50.846;4.078;2022-07-12T14:58:44;30.60;96.90
20658;DHT22;10488;50.846;4.078;2022-07-12T15:01:10;30.50;96.20
20658;DHT22;10488;50.846;4.078;2022-07-12T15:03:36;30.60;97.50
20658;DHT22;10488;50.846;4.078;2022-07-12T15:06:02;30.60;97.50
20658;DHT22;10488;50.846;4.078;2022-07-12T15:08:29;30.60;97.10
20658;DHT22;10488;50.846;4.078;2022-07-12T15:10:56;30.80;97.90
20658;DHT22;10488;50.846;4.078;2022-07-12T15:13:22;30.80;96.70
20658;DHT22;10488;50.846;4.078;2022-07-12T15:15:48;30.70;96.60
20658;DHT22;10488;50.846;4.078;2022-07-12T15:18:13;30.80;97.40
20658;DHT22;10488;50.846;4.078;2022-07-12T15:20:39;30.60;96.30
20658;DHT22;10488;50.846;4.078;2022-07-12T15:23:05;30.90;96.50
20658;DHT22;10488;50.846;4.078;2022-07-12T15:25:30;31.20;96.90
20658;DHT22;10488;50.846;4.078;2022-07-12T15:27:58;31.10;97.20
20658;DHT22;10488;50.846;4.078;2022-07-12T15:30:24;31.20;96.50
20658;DHT22;10488;50.846;4.078;2022-07-12T15:32:50;30.70;96.30
20658;DHT22;10488;50.846;4.078;2022-07-12T15:35:17;30.60;96.80
20658;DHT22;10488;50.846;4.078;2022-07-12T15:37:43;30.60;97.00
20658;DHT22;10488;50.846;4.078;2022-07-12T15:40:09;30.90;97.70
20658;DHT22;10488;50.846;4.078;2022-07-12T15:42:34;31.10;97.80
20658;DHT22;10488;50.846;4.078;2022-07-12T15:45:00;31.50;96.40
20658;DHT22;10488;50.846;4.078;2022-07-12T15:47:26;31.60;96.20
20658;DHT22;10488;50.846;4.078;2022-07-12T15:49:51;31.50;94.90